createdAt,value
2023-05-06T00:00:01.113Z,12.4
2023-05-06T00:10:00.535Z,12.3
2023-05-06T00:20:01.091Z,12.4
2023-05-06T00:30:01.066Z,12.1
2023-05-06T00:40:01.195Z,11.9
2023-05-06T00:50:02.666Z,11.8
2023-05-06T01:00:01.069Z,11.8
2023-05-06T01:10:01.441Z,11.7
2023-05-06T01:20:00.587Z,12.2
2023-05-06T01:30:02.729Z,12.0
2023-05-06T01:40:01.081Z,12.2
2023-05-06T01:50:01.264Z,11.9
2023-05-06T02:00:01.656Z,11.7
2023-05-06T02:10:00.995Z,11.7
2023-05-06T02:30:01.047Z,11.5
2023-05-06T02:40:01.031Z,11.4
2023-05-06T02:50:01.054Z,11.1
2023-05-06T03:00:01.256Z,10.8
2023-05-06T03:10:01.131Z,10.8
2023-05-06T03:20:01.142Z,10.5
2023-05-06T03:40:01.824Z,11.0
2023-05-06T03:50:01.577Z,10.6
2023-05-06T04:00:01.872Z,10.7
2023-05-06T04:10:03.543Z,10.7
2023-05-06T04:20:01.098Z,10.9
2023-05-06T04:30:01.098Z,10.5
2023-05-06T04:40:01.199Z,10.4
2023-05-06T04:50:02.070Z,10.6
2023-05-06T05:00:00.651Z,10.8
2023-05-06T05:10:01.031Z,10.8
2023-05-06T05:30:01.495Z,10.6
2023-05-06T05:40:01.060Z,10.6
2023-05-06T05:50:01.212Z,10.6
2023-05-06T06:00:02.820Z,10.7
2023-05-06T06:10:01.506Z,10.7
2023-05-06T06:20:01.748Z,10.5
2023-05-06T06:30:01.422Z,10.5
2023-05-06T06:40:01.358Z,10.2
2023-05-06T06:50:01.373Z,10.3
2023-05-06T07:00:01.300Z,10.2
2023-05-06T07:10:01.537Z,10.4
2023-05-06T07:30:00.554Z,10.4
2023-05-06T07:40:01.360Z,10.8
2023-05-06T07:50:01.501Z,11.2
2023-05-06T08:00:01.089Z,10.9
2023-05-06T08:10:01.177Z,10.7
2023-05-06T08:20:01.549Z,10.7
2023-05-06T08:30:01.210Z,10.7
2023-05-06T08:40:01.226Z,11.2
2023-05-06T08:50:01.058Z,10.9
2023-05-06T09:00:01.990Z,10.9
2023-05-06T09:10:01.513Z,11.1
2023-05-06T09:30:01.105Z,11.0
2023-05-06T09:40:01.204Z,11.6
2023-05-06T09:50:03.141Z,11.5
2023-05-06T10:10:01.084Z,11.8
2023-05-06T10:30:01.044Z,12.1
2023-05-06T10:40:01.077Z,11.9
2023-05-06T10:50:01.132Z,11.9
2023-05-06T11:00:02.331Z,11.2
2023-05-06T11:10:03.316Z,11.1
2023-05-06T11:20:02.108Z,11.1
2023-05-06T11:30:01.060Z,10.9
2023-05-06T11:40:03.407Z,11.3
2023-05-06T11:50:04.662Z,10.8
2023-05-06T12:00:01.362Z,10.7
2023-05-06T12:10:01.057Z,11.1
2023-05-06T12:20:01.203Z,11.6
2023-05-06T12:30:01.761Z,10.9
2023-05-06T12:40:01.522Z,11.3
2023-05-06T12:50:01.242Z,11.4
2023-05-06T13:00:01.197Z,11.5
2023-05-06T13:10:01.073Z,11.2
2023-05-06T13:20:03.916Z,11.2
2023-05-06T13:30:00.523Z,11.6
2023-05-06T13:40:01.800Z,11.4
2023-05-06T13:50:02.840Z,11.6
2023-05-06T14:00:01.199Z,11.7
2023-05-06T14:10:01.344Z,12.4
2023-05-06T14:20:02.000Z,12.4
2023-05-06T14:30:01.243Z,12.1
2023-05-06T14:40:01.307Z,12.1
2023-05-06T14:50:01.308Z,12.4
2023-05-06T15:00:01.659Z,11.7
2023-05-06T15:10:01.076Z,11.0
2023-05-06T15:20:01.166Z,11.0
2023-05-06T15:30:00.669Z,11.1
2023-05-06T15:40:01.023Z,11.6
2023-05-06T15:50:01.480Z,11.6
2023-05-06T16:10:01.285Z,11.5
2023-05-06T16:20:00.572Z,11.7
2023-05-06T16:30:01.017Z,11.8
2023-05-06T16:40:02.132Z,11.9
2023-05-06T16:50:01.968Z,11.4
2023-05-06T17:00:01.645Z,11.2
2023-05-06T17:10:01.467Z,11.6
2023-05-06T17:20:01.898Z,11.6
2023-05-06T17:30:01.178Z,11.2
2023-05-06T17:40:01.115Z,11.5
2023-05-06T17:50:01.536Z,11.9
2023-05-06T18:00:02.255Z,11.5
2023-05-06T18:10:01.075Z,11.6
2023-05-06T18:20:01.135Z,11.1
2023-05-06T18:30:02.995Z,11.8
2023-05-06T18:40:01.073Z,11.4
2023-05-06T18:50:01.057Z,11.3
2023-05-06T19:00:01.222Z,11.7
2023-05-06T19:10:01.282Z,11.1
2023-05-06T19:20:02.526Z,11.7
2023-05-06T19:30:01.024Z,11.3
2023-05-06T19:40:01.112Z,11.3
2023-05-06T19:50:01.428Z,11.4
2023-05-06T20:00:01.393Z,11.3
2023-05-06T20:10:01.936Z,11.2
2023-05-06T20:20:03.489Z,11.0
2023-05-06T20:30:01.565Z,11.3
2023-05-06T20:50:01.231Z,11.2
2023-05-06T21:00:01.393Z,11.4
2023-05-06T21:10:01.882Z,11.0
2023-05-06T21:20:01.403Z,11.4
2023-05-06T21:30:01.240Z,11.5
2023-05-06T21:40:01.393Z,11.1
2023-05-06T21:50:01.808Z,11.5
2023-05-06T22:00:01.141Z,11.3
2023-05-06T22:10:01.073Z,11.3
2023-05-06T22:20:01.362Z,11.3
2023-05-06T22:30:01.081Z,11.3
2023-05-06T22:40:02.487Z,11.3
2023-05-06T22:50:01.250Z,11.1
2023-05-06T23:00:01.077Z,11.0
2023-05-06T23:10:00.975Z,11.2
2023-05-06T23:20:01.073Z,11.4
2023-05-06T23:30:01.559Z,11.0
2023-05-06T23:40:01.495Z,11.4
2023-05-06T23:50:01.374Z,11.4
